createdAt,value
2023-01-17T02:22:51.169Z,94.00
2023-01-17T02:25:30.509Z,91.89
2023-01-17T02:28:09.741Z,91.78
2023-01-17T02:30:39.760Z,91.16
2023-01-17T02:33:09.573Z,91.08
2023-01-17T02:36:00.173Z,91.00
2023-01-17T02:38:39.933Z,90.96
2023-01-17T02:41:10.446Z,90.67
2023-01-17T02:43:37.810Z,90.55
2023-01-17T02:46:05.107Z,90.48
2023-01-17T02:48:33.857Z,90.58
2023-01-17T02:51:04.073Z,90.70
2023-01-17T02:53:52.740Z,90.33
2023-01-17T02:56:27.460Z,90.40
2023-01-17T02:58:57.591Z,90.44
2023-01-17T03:01:31.595Z,90.29
2023-01-17T03:04:26.289Z,90.07
2023-01-17T03:07:02.968Z,90.11
2023-01-17T03:09:30.693Z,90.18
2023-01-17T03:11:58.545Z,90.01
2023-01-17T03:14:25.853Z,89.93
2023-01-17T03:16:53.077Z,89.68
2023-01-17T03:19:20.261Z,89.83
2023-01-17T03:21:47.410Z,89.92
2023-01-17T03:24:14.570Z,89.70
2023-01-17T03:26:45.103Z,89.62
2023-01-17T03:29:12.255Z,89.41
2023-01-17T03:31:39.401Z,89.33
2023-01-17T03:34:06.551Z,89.27
2023-01-17T03:36:33.704Z,89.30
2023-01-17T03:39:00.755Z,89.23
2023-01-17T03:41:27.807Z,89.31
2023-01-17T03:43:54.958Z,89.34
2023-01-17T03:46:26.514Z,89.09
2023-01-17T03:48:53.667Z,89.12
2023-01-17T03:51:20.824Z,89.07
2023-01-17T03:53:48.190Z,89.23
2023-01-17T03:56:15.437Z,89.12
2023-01-17T03:58:42.687Z,88.96
2023-01-17T04:01:09.916Z,89.05
2023-01-17T04:03:37.205Z,89.09
2023-01-17T04:06:04.453Z,89.14
2023-01-17T04:08:31.809Z,88.95
2023-01-17T04:10:58.953Z,89.00
2023-01-17T04:13:26.108Z,88.99
2023-01-17T04:15:53.170Z,89.21
2023-01-17T04:18:20.933Z,89.04
2023-01-17T04:20:47.983Z,89.01
2023-01-17T04:23:15.035Z,89.01
2023-01-17T04:25:42.177Z,89.18
2023-01-17T04:28:10.154Z,89.20
2023-01-17T04:30:37.529Z,88.95
2023-01-17T04:33:04.653Z,89.08
2023-01-17T04:35:31.907Z,89.08
2023-01-17T04:37:59.073Z,89.22
2023-01-17T04:40:26.822Z,89.19
2023-01-17T04:42:54.589Z,89.20
2023-01-17T04:45:21.738Z,89.31
2023-01-17T04:47:48.894Z,89.25
2023-01-17T04:50:16.632Z,89.28
2023-01-17T04:52:43.814Z,89.18
2023-01-17T04:55:11.269Z,89.29
2023-01-17T04:57:38.323Z,89.21
2023-01-17T05:00:06.071Z,89.27
2023-01-17T05:02:33.312Z,89.11
2023-01-17T05:05:00.589Z,89.06
2023-01-17T05:07:27.739Z,89.04
2023-01-17T05:09:54.789Z,89.07
2023-01-17T05:12:21.940Z,88.97
2023-01-17T05:14:49.089Z,88.81
2023-01-17T05:17:16.146Z,88.89
2023-01-17T05:19:43.289Z,89.06
2023-01-17T05:22:16.765Z,89.18
2023-01-17T05:24:44.401Z,89.11
2023-01-17T05:27:12.334Z,89.10
2023-01-17T05:29:39.581Z,89.18
2023-01-17T05:32:06.792Z,89.22
2023-01-17T05:34:34.594Z,89.26
2023-01-17T05:37:01.742Z,88.90
2023-01-17T05:39:31.252Z,88.86
2023-01-17T05:41:59.500Z,88.89
2023-01-17T05:44:27.945Z,89.09
2023-01-17T05:46:56.288Z,89.20
2023-01-17T05:49:23.579Z,88.94
2023-01-17T05:51:51.440Z,89.05
2023-01-17T05:54:19.580Z,89.04
2023-01-17T05:56:46.734Z,88.88
2023-01-17T05:59:14.349Z,88.54
2023-01-17T06:01:41.642Z,88.60
2023-01-17T12:33:45.275Z,94.31
2023-01-17T12:36:34.558Z,91.85
2023-01-17T12:39:05.177Z,90.96
2023-01-17T12:41:38.272Z,90.74
2023-01-17T12:44:05.225Z,90.25
2023-01-17T12:46:59.091Z,89.57
2023-01-17T12:49:36.499Z,88.75
2023-01-17T12:52:19.415Z,88.76
2023-01-17T12:54:51.469Z,88.45
2023-01-17T12:57:31.731Z,88.10
2023-01-17T13:00:29.269Z,88.02
2023-01-17T13:03:09.265Z,88.34
2023-01-17T13:05:38.243Z,88.49
2023-01-17T13:08:14.717Z,88.39
2023-01-17T13:11:07.053Z,88.46
2023-01-17T13:13:35.275Z,88.57
2023-01-17T13:16:27.913Z,88.64
2023-01-17T13:18:54.930Z,88.67
2023-01-17T13:21:29.767Z,88.75
2023-01-17T13:23:58.654Z,88.84
2023-01-17T13:26:50.077Z,88.59
2023-01-17T13:30:04.955Z,88.61
2023-01-17T13:32:50.738Z,88.69
2023-01-17T13:35:22.339Z,88.89
2023-01-17T13:38:01.938Z,89.16
2023-01-17T13:40:41.896Z,89.00
2023-01-17T13:43:13.241Z,88.94
2023-01-17T13:45:40.213Z,89.34
2023-01-17T13:48:14.301Z,89.68
2023-01-17T13:50:41.556Z,89.39
2023-01-17T13:53:26.834Z,89.22
2023-01-17T13:56:18.359Z,89.17
2023-01-17T13:58:49.913Z,89.55
2023-01-17T14:01:21.888Z,89.68
2023-01-17T14:03:49.536Z,89.62
2023-01-17T14:06:35.267Z,89.65
2023-01-17T14:09:12.436Z,89.88
2023-01-17T14:11:51.950Z,90.21
2023-01-17T20:18:22.813Z,95.00
2023-01-17T20:20:56.894Z,93.04
2023-01-17T20:23:24.697Z,93.18
2023-01-17T20:25:59.255Z,93.54
2023-01-17T20:28:27.189Z,93.32
2023-01-17T20:30:55.699Z,92.94
2023-01-17T20:33:23.650Z,92.58
2023-01-17T20:36:04.914Z,92.45
2023-01-17T20:38:45.608Z,92.22
2023-01-17T20:41:23.938Z,91.69
2023-01-17T20:43:52.952Z,91.43
2023-01-17T20:46:22.008Z,90.97
2023-01-17T20:48:51.422Z,90.94
2023-01-17T20:51:18.651Z,90.90
2023-01-17T20:53:47.036Z,90.57
2023-01-17T20:56:15.252Z,90.32
2023-01-17T20:58:42.873Z,90.37
2023-01-17T21:01:11.144Z,90.32
2023-01-17T21:03:38.811Z,90.32
2023-01-17T21:06:07.742Z,90.06
2023-01-17T21:08:36.496Z,89.74
2023-01-17T21:11:03.974Z,89.64
2023-01-17T21:13:32.030Z,89.21
2023-01-17T21:15:59.192Z,88.88
2023-01-17T21:18:26.952Z,88.71
2023-01-17T21:20:54.207Z,88.15
2023-01-17T21:23:23.817Z,87.93
2023-01-17T21:25:55.774Z,87.83
2023-01-17T21:28:24.368Z,87.61
2023-01-17T21:30:52.492Z,87.33
2023-01-17T21:33:20.057Z,86.98
2023-01-17T21:35:47.260Z,86.90
2023-01-17T21:38:14.713Z,86.92
2023-01-17T21:40:42.599Z,86.82
2023-01-17T21:43:09.940Z,86.67
2023-01-17T21:45:40.839Z,86.53
2023-01-17T21:48:12.367Z,86.69
2023-01-17T21:50:39.495Z,86.71
2023-01-17T21:53:07.760Z,86.79
2023-01-17T21:55:53.546Z,86.71
